sensor_id;sensor_type;location;lat;lon;timestamp;temperature;humidity
36916;DHT22;22836;52.268;9.008;2022-07-25T00:03:00;26.50;38.20
36916;DHT22;22836;52.268;9.008;2022-07-25T00:07:03;26.50;38.20
36916;DHT22;22836;52.268;9.008;2022-07-25T00:11:05;26.50;38.30
36916;DHT22;22836;52.268;9.008;2022-07-25T00:15:07;26.40;38.20
36916;DHT22;22836;52.268;9.008;2022-07-25T00:19:09;26.40;38.40
36916;DHT22;22836;52.268;9.008;2022-07-25T00:23:11;26.30;38.40
36916;DHT22;22836;52.268;9.008;2022-07-25T00:27:13;26.30;38.50
36916;DHT22;22836;52.268;9.008;2022-07-25T00:31:15;26.20;38.50
36916;DHT22;22836;52.268;9.008;2022-07-25T00:35:17;26.20;38.50
36916;DHT22;22836;52.268;9.008;2022-07-25T00:39:19;26.10;38.60
36916;DHT22;22836;52.268;9.008;2022-07-25T00:43:21;26.10;38.70
36916;DHT22;22836;52.268;9.008;2022-07-25T00:47:23;26.00;38.70
36916;DHT22;22836;52.268;9.008;2022-07-25T00:51:25;26.00;38.80
36916;DHT22;22836;52.268;9.008;2022-07-25T00:55:30;25.90;38.70
36916;DHT22;22836;52.268;9.008;2022-07-25T00:59:32;25.90;38.80
36916;DHT22;22836;52.268;9.008;2022-07-25T01:03:34;25.90;38.80
36916;DHT22;22836;52.268;9.008;2022-07-25T01:07:37;25.90;38.70
36916;DHT22;22836;52.268;9.008;2022-07-25T01:11:39;25.90;38.70
36916;DHT22;22836;52.268;9.008;2022-07-25T01:15:41;25.90;38.90
36916;DHT22;22836;52.268;9.008;2022-07-25T01:19:44;26.00;38.40
36916;DHT22;22836;52.268;9.008;2022-07-25T01:23:46;26.00;38.40
36916;DHT22;22836;52.268;9.008;2022-07-25T01:27:48;26.10;38.40
36916;DHT22;22836;52.268;9.008;2022-07-25T01:31:56;26.10;38.40
36916;DHT22;22836;52.268;9.008;2022-07-25T01:35:58;26.10;38.20
36916;DHT22;22836;52.268;9.008;2022-07-25T01:40:01;26.20;38.30
36916;DHT22;22836;52.268;9.008;2022-07-25T01:44:04;26.20;38.30
36916;DHT22;22836;52.268;9.008;2022-07-25T01:48:06;26.10;38.40
36916;DHT22;22836;52.268;9.008;2022-07-25T01:52:08;26.00;38.30
36916;DHT22;22836;52.268;9.008;2022-07-25T01:56:11;26.00;38.40
36916;DHT22;22836;52.268;9.008;2022-07-25T02:00:13;25.90;38.40
36916;DHT22;22836;52.268;9.008;2022-07-25T02:04:16;25.90;38.50
36916;DHT22;22836;52.268;9.008;2022-07-25T02:08:18;25.80;38.50
36916;DHT22;22836;52.268;9.008;2022-07-25T02:12:20;25.80;38.60
36916;DHT22;22836;52.268;9.008;2022-07-25T02:16:22;25.70;38.50
36916;DHT22;22836;52.268;9.008;2022-07-25T02:20:29;25.70;38.60
36916;DHT22;22836;52.268;9.008;2022-07-25T02:24:31;25.60;38.60
36916;DHT22;22836;52.268;9.008;2022-07-25T02:28:33;25.60;38.60
36916;DHT22;22836;52.268;9.008;2022-07-25T02:32:35;25.50;38.60
36916;DHT22;22836;52.268;9.008;2022-07-25T02:36:37;25.50;39.30
36916;DHT22;22836;52.268;9.008;2022-07-25T02:40:41;25.50;38.70
36916;DHT22;22836;52.268;9.008;2022-07-25T02:44:43;25.40;38.70
36916;DHT22;22836;52.268;9.008;2022-07-25T02:48:44;25.40;38.80
36916;DHT22;22836;52.268;9.008;2022-07-25T02:52:47;25.40;38.80
36916;DHT22;22836;52.268;9.008;2022-07-25T02:56:49;25.30;38.70
36916;DHT22;22836;52.268;9.008;2022-07-25T03:00:50;25.30;38.70
36916;DHT22;22836;52.268;9.008;2022-07-25T03:04:52;25.30;38.80
36916;DHT22;22836;52.268;9.008;2022-07-25T03:08:55;25.30;38.80
36916;DHT22;22836;52.268;9.008;2022-07-25T03:12:56;25.20;38.70
36916;DHT22;22836;52.268;9.008;2022-07-25T03:16:58;25.20;38.80
36916;DHT22;22836;52.268;9.008;2022-07-25T03:21:00;25.20;38.90
36916;DHT22;22836;52.268;9.008;2022-07-25T03:25:02;25.10;38.80
36916;DHT22;22836;52.268;9.008;2022-07-25T03:29:05;25.10;38.90
36916;DHT22;22836;52.268;9.008;2022-07-25T03:33:07;25.10;38.90
36916;DHT22;22836;52.268;9.008;2022-07-25T03:37:09;25.10;38.90
36916;DHT22;22836;52.268;9.008;2022-07-25T03:41:12;25.00;38.90
36916;DHT22;22836;52.268;9.008;2022-07-25T03:45:26;25.00;38.90
36916;DHT22;22836;52.268;9.008;2022-07-25T03:49:35;25.00;39.20
36916;DHT22;22836;52.268;9.008;2022-07-25T03:53:44;25.00;39.00
36916;DHT22;22836;52.268;9.008;2022-07-25T03:57:47;25.00;39.00
36916;DHT22;22836;52.268;9.008;2022-07-25T04:01:50;24.90;39.00
36916;DHT22;22836;52.268;9.008;2022-07-25T04:05:52;24.90;39.10
36916;DHT22;22836;52.268;9.008;2022-07-25T04:10:04;24.90;39.10
36916;DHT22;22836;52.268;9.008;2022-07-25T04:14:06;24.90;39.30
36916;DHT22;22836;52.268;9.008;2022-07-25T04:18:14;24.90;39.30
36916;DHT22;22836;52.268;9.008;2022-07-25T04:22:26;24.90;39.30
36916;DHT22;22836;52.268;9.008;2022-07-25T04:26:28;25.00;39.40
36916;DHT22;22836;52.268;9.008;2022-07-25T04:30:30;25.00;39.40
36916;DHT22;22836;52.268;9.008;2022-07-25T04:34:35;25.10;39.90
36916;DHT22;22836;52.268;9.008;2022-07-25T04:38:36;25.20;39.30
36916;DHT22;22836;52.268;9.008;2022-07-25T04:42:38;25.30;39.30
36916;DHT22;22836;52.268;9.008;2022-07-25T04:46:41;25.50;39.40
36916;DHT22;22836;52.268;9.008;2022-07-25T04:50:43;25.50;39.30
36916;DHT22;22836;52.268;9.008;2022-07-25T04:54:45;25.70;39.90
36916;DHT22;22836;52.268;9.008;2022-07-25T04:58:47;25.70;39.10
36916;DHT22;22836;52.268;9.008;2022-07-25T05:02:49;25.90;39.10
36916;DHT22;22836;52.268;9.008;2022-07-25T05:06:51;26.00;39.10
36916;DHT22;22836;52.268;9.008;2022-07-25T05:10:53;26.10;39.00
36916;DHT22;22836;52.268;9.008;2022-07-25T05:14:55;26.20;39.00
36916;DHT22;22836;52.268;9.008;2022-07-25T05:19:00;26.30;39.00
36916;DHT22;22836;52.268;9.008;2022-07-25T05:23:02;26.40;38.90
36916;DHT22;22836;52.268;9.008;2022-07-25T05:27:08;26.60;39.00
36916;DHT22;22836;52.268;9.008;2022-07-25T05:31:12;26.70;38.90
36916;DHT22;22836;52.268;9.008;2022-07-25T05:35:14;26.80;38.80
36916;DHT22;22836;52.268;9.008;2022-07-25T05:39:16;27.00;39.30
36916;DHT22;22836;52.268;9.008;2022-07-25T05:43:18;27.10;38.70
36916;DHT22;22836;52.268;9.008;2022-07-25T05:47:20;27.30;38.70
36916;DHT22;22836;52.268;9.008;2022-07-25T05:51:22;27.50;38.60
36916;DHT22;22836;52.268;9.008;2022-07-25T05:55:28;27.60;38.50
36916;DHT22;22836;52.268;9.008;2022-07-25T05:59:29;27.80;38.50
36916;DHT22;22836;52.268;9.008;2022-07-25T06:03:31;27.90;38.40
36916;DHT22;22836;52.268;9.008;2022-07-25T06:07:33;28.10;38.30
36916;DHT22;22836;52.268;9.008;2022-07-25T06:11:35;28.20;38.30
36916;DHT22;22836;52.268;9.008;2022-07-25T06:16:00;28.40;38.30
36916;DHT22;22836;52.268;9.008;2022-07-25T06:20:02;28.50;38.10
36916;DHT22;22836;52.268;9.008;2022-07-25T06:24:04;28.70;38.10
36916;DHT22;22836;52.268;9.008;2022-07-25T06:28:07;28.80;38.00
36916;DHT22;22836;52.268;9.008;2022-07-25T06:32:11;29.00;38.10
36916;DHT22;22836;52.268;9.008;2022-07-25T06:36:12;29.10;37.90
36916;DHT22;22836;52.268;9.008;2022-07-25T06:40:40;29.20;37.90
36916;DHT22;22836;52.268;9.008;2022-07-25T06:44:42;29.30;38.00
36916;DHT22;22836;52.268;9.008;2022-07-25T06:48:44;29.40;37.80
36916;DHT22;22836;52.268;9.008;2022-07-25T06:52:46;29.40;37.70
36916;DHT22;22836;52.268;9.008;2022-07-25T06:56:48;29.50;37.70
36916;DHT22;22836;52.268;9.008;2022-07-25T07:00:50;29.60;37.70
36916;DHT22;22836;52.268;9.008;2022-07-25T07:04:52;29.60;37.70
36916;DHT22;22836;52.268;9.008;2022-07-25T07:08:54;29.60;37.70
36916;DHT22;22836;52.268;9.008;2022-07-25T07:13:10;29.70;37.80
36916;DHT22;22836;52.268;9.008;2022-07-25T07:17:13;29.70;37.90
36916;DHT22;22836;52.268;9.008;2022-07-25T07:21:15;29.90;37.80
36916;DHT22;22836;52.268;9.008;2022-07-25T07:25:24;30.00;37.70
36916;DHT22;22836;52.268;9.008;2022-07-25T07:29:31;30.10;37.60
36916;DHT22;22836;52.268;9.008;2022-07-25T07:33:33;30.20;37.50
36916;DHT22;22836;52.268;9.008;2022-07-25T07:37:39;30.30;37.50
36916;DHT22;22836;52.268;9.008;2022-07-25T07:41:44;30.50;37.60
36916;DHT22;22836;52.268;9.008;2022-07-25T07:45:46;30.60;37.50
36916;DHT22;22836;52.268;9.008;2022-07-25T07:49:48;30.80;37.50
36916;DHT22;22836;52.268;9.008;2022-07-25T07:53:51;31.00;37.40
36916;DHT22;22836;52.268;9.008;2022-07-25T07:57:53;31.20;37.40
36916;DHT22;22836;52.268;9.008;2022-07-25T08:01:55;31.30;37.30
36916;DHT22;22836;52.268;9.008;2022-07-25T08:05:57;31.60;37.20
36916;DHT22;22836;52.268;9.008;2022-07-25T08:09:59;31.70;37.00
36916;DHT22;22836;52.268;9.008;2022-07-25T08:14:01;31.90;36.90
36916;DHT22;22836;52.268;9.008;2022-07-25T08:18:03;32.10;36.80
36916;DHT22;22836;52.268;9.008;2022-07-25T08:22:17;32.20;36.80
36916;DHT22;22836;52.268;9.008;2022-07-25T08:26:19;32.30;36.60
36916;DHT22;22836;52.268;9.008;2022-07-25T08:30:22;32.40;36.60
36916;DHT22;22836;52.268;9.008;2022-07-25T08:34:26;32.40;36.40
36916;DHT22;22836;52.268;9.008;2022-07-25T08:38:28;32.50;36.40
36916;DHT22;22836;52.268;9.008;2022-07-25T08:42:32;32.50;36.40
36916;DHT22;22836;52.268;9.008;2022-07-25T08:46:34;32.60;36.40
36916;DHT22;22836;52.268;9.008;2022-07-25T08:50:37;32.70;36.50
36916;DHT22;22836;52.268;9.008;2022-07-25T08:54:39;32.80;36.40
36916;DHT22;22836;52.268;9.008;2022-07-25T08:58:41;33.10;36.40
36916;DHT22;22836;52.268;9.008;2022-07-25T09:02:54;33.30;36.20
36916;DHT22;22836;52.268;9.008;2022-07-25T09:06:57;33.60;35.80
36916;DHT22;22836;52.268;9.008;2022-07-25T09:10:59;33.80;35.70
36916;DHT22;22836;52.268;9.008;2022-07-25T09:15:01;34.10;35.50
36916;DHT22;22836;52.268;9.008;2022-07-25T09:23:13;34.40;34.80
36916;DHT22;22836;52.268;9.008;2022-07-25T09:27:16;34.50;34.90
36916;DHT22;22836;52.268;9.008;2022-07-25T09:31:18;34.60;34.80
36916;DHT22;22836;52.268;9.008;2022-07-25T09:35:32;34.70;34.60
36916;DHT22;22836;52.268;9.008;2022-07-25T09:39:44;34.80;34.50
36916;DHT22;22836;52.268;9.008;2022-07-25T09:43:48;34.90;34.30
36916;DHT22;22836;52.268;9.008;2022-07-25T09:47:58;35.00;34.50
36916;DHT22;22836;52.268;9.008;2022-07-25T09:52:02;35.20;34.50
36916;DHT22;22836;52.268;9.008;2022-07-25T09:56:04;35.30;34.30
36916;DHT22;22836;52.268;9.008;2022-07-25T10:00:09;35.40;34.20
36916;DHT22;22836;52.268;9.008;2022-07-25T10:04:20;35.50;33.80
36916;DHT22;22836;52.268;9.008;2022-07-25T10:08:24;35.60;33.60
36916;DHT22;22836;52.268;9.008;2022-07-25T10:12:26;35.70;33.90
36916;DHT22;22836;52.268;9.008;2022-07-25T10:16:29;35.70;33.80
36916;DHT22;22836;52.268;9.008;2022-07-25T10:20:31;35.90;33.40
36916;DHT22;22836;52.268;9.008;2022-07-25T10:24:37;35.90;33.30
36916;DHT22;22836;52.268;9.008;2022-07-25T10:28:43;35.90;33.00
36916;DHT22;22836;52.268;9.008;2022-07-25T10:33:01;35.90;32.80
36916;DHT22;22836;52.268;9.008;2022-07-25T10:37:17;35.90;32.80
36916;DHT22;22836;52.268;9.008;2022-07-25T10:41:22;35.90;33.00
36916;DHT22;22836;52.268;9.008;2022-07-25T10:45:25;35.90;32.20
36916;DHT22;22836;52.268;9.008;2022-07-25T10:49:40;35.80;32.90
36916;DHT22;22836;52.268;9.008;2022-07-25T10:54:17;35.70;33.00
36916;DHT22;22836;52.268;9.008;2022-07-25T10:58:18;35.60;33.00
36916;DHT22;22836;52.268;9.008;2022-07-25T11:02:23;35.60;33.30
36916;DHT22;22836;52.268;9.008;2022-07-25T11:06:43;35.70;33.20
36916;DHT22;22836;52.268;9.008;2022-07-25T11:10:49;35.70;33.30
36916;DHT22;22836;52.268;9.008;2022-07-25T11:15:04;35.80;33.20
36916;DHT22;22836;52.268;9.008;2022-07-25T11:19:24;35.80;33.00
36916;DHT22;22836;52.268;9.008;2022-07-25T11:23:28;35.70;32.60
36916;DHT22;22836;52.268;9.008;2022-07-25T11:27:32;35.60;32.90
36916;DHT22;22836;52.268;9.008;2022-07-25T11:31:35;35.50;32.90
36916;DHT22;22836;52.268;9.008;2022-07-25T11:35:37;35.40;32.90
36916;DHT22;22836;52.268;9.008;2022-07-25T11:39:41;35.40;33.10
36916;DHT22;22836;52.268;9.008;2022-07-25T11:43:48;35.50;32.80
36916;DHT22;22836;52.268;9.008;2022-07-25T11:48:05;35.50;32.80
36916;DHT22;22836;52.268;9.008;2022-07-25T11:52:21;35.60;32.80
36916;DHT22;22836;52.268;9.008;2022-07-25T11:56:26;35.60;32.40
36916;DHT22;22836;52.268;9.008;2022-07-25T12:00:47;35.60;32.60
36916;DHT22;22836;52.268;9.008;2022-07-25T12:04:54;35.60;32.60
36916;DHT22;22836;52.268;9.008;2022-07-25T12:09:18;35.60;32.40
36916;DHT22;22836;52.268;9.008;2022-07-25T12:13:24;35.50;32.30
36916;DHT22;22836;52.268;9.008;2022-07-25T12:17:27;35.50;32.60
36916;DHT22;22836;52.268;9.008;2022-07-25T12:21:29;35.40;32.60
36916;DHT22;22836;52.268;9.008;2022-07-25T12:25:32;35.30;32.50
36916;DHT22;22836;52.268;9.008;2022-07-25T12:29:34;35.30;32.50
36916;DHT22;22836;52.268;9.008;2022-07-25T12:33:37;35.20;32.50
36916;DHT22;22836;52.268;9.008;2022-07-25T12:37:42;35.00;32.40
36916;DHT22;22836;52.268;9.008;2022-07-25T12:41:47;34.90;32.50
36916;DHT22;22836;52.268;9.008;2022-07-25T12:45:50;34.90;32.60
36916;DHT22;22836;52.268;9.008;2022-07-25T12:49:51;35.00;32.60
36916;DHT22;22836;52.268;9.008;2022-07-25T12:53:54;35.10;32.50
36916;DHT22;22836;52.268;9.008;2022-07-25T12:57:56;35.10;32.70
36916;DHT22;22836;52.268;9.008;2022-07-25T13:01:58;35.20;32.70
36916;DHT22;22836;52.268;9.008;2022-07-25T13:06:00;35.30;32.80
36916;DHT22;22836;52.268;9.008;2022-07-25T13:10:03;35.30;32.70
36916;DHT22;22836;52.268;9.008;2022-07-25T13:14:05;35.40;32.70
36916;DHT22;22836;52.268;9.008;2022-07-25T13:18:07;35.40;32.60
36916;DHT22;22836;52.268;9.008;2022-07-25T13:22:09;35.50;32.60
36916;DHT22;22836;52.268;9.008;2022-07-25T13:26:14;35.60;32.70
36916;DHT22;22836;52.268;9.008;2022-07-25T13:30:16;35.80;32.70
36916;DHT22;22836;52.268;9.008;2022-07-25T13:34:19;35.90;32.40
36916;DHT22;22836;52.268;9.008;2022-07-25T13:38:21;36.00;32.20
36916;DHT22;22836;52.268;9.008;2022-07-25T13:42:23;36.20;32.10
36916;DHT22;22836;52.268;9.008;2022-07-25T13:46:25;36.40;31.60
36916;DHT22;22836;52.268;9.008;2022-07-25T13:50:27;36.70;31.70
36916;DHT22;22836;52.268;9.008;2022-07-25T13:54:29;36.90;31.40
36916;DHT22;22836;52.268;9.008;2022-07-25T13:58:31;37.00;31.40
36916;DHT22;22836;52.268;9.008;2022-07-25T14:02:33;37.20;31.20
36916;DHT22;22836;52.268;9.008;2022-07-25T14:06:35;37.70;30.90
36916;DHT22;22836;52.268;9.008;2022-07-25T14:10:37;37.90;30.70
36916;DHT22;22836;52.268;9.008;2022-07-25T14:14:38;37.90;30.80
36916;DHT22;22836;52.268;9.008;2022-07-25T14:18:40;38.00;30.80
36916;DHT22;22836;52.268;9.008;2022-07-25T14:22:43;37.90;30.60
36916;DHT22;22836;52.268;9.008;2022-07-25T14:26:44;37.70;30.90
36916;DHT22;22836;52.268;9.008;2022-07-25T14:30:46;37.80;30.90
36916;DHT22;22836;52.268;9.008;2022-07-25T14:34:48;37.90;30.90
36916;DHT22;22836;52.268;9.008;2022-07-25T14:38:50;37.80;30.90
36916;DHT22;22836;52.268;9.008;2022-07-25T14:42:52;37.80;30.90
36916;DHT22;22836;52.268;9.008;2022-07-25T14:46:55;38.00;31.00
36916;DHT22;22836;52.268;9.008;2022-07-25T14:50:57;38.20;31.10
36916;DHT22;22836;52.268;9.008;2022-07-25T14:54:59;38.40;30.90
36916;DHT22;22836;52.268;9.008;2022-07-25T14:59:04;38.30;30.70
36916;DHT22;22836;52.268;9.008;2022-07-25T15:03:08;37.80;30.90
36916;DHT22;22836;52.268;9.008;2022-07-25T15:07:15;37.50;31.40
36916;DHT22;22836;52.268;9.008;2022-07-25T15:11:21;37.10;31.50
36916;DHT22;22836;52.268;9.008;2022-07-25T15:15:23;36.90;31.60
36916;DHT22;22836;52.268;9.008;2022-07-25T15:19:25;36.60;31.90
36916;DHT22;22836;52.268;9.008;2022-07-25T15:23:28;36.40;32.30
36916;DHT22;22836;52.268;9.008;2022-07-25T15:27:31;36.40;32.20
36916;DHT22;22836;52.268;9.008;2022-07-25T15:31:34;36.10;32.20
36916;DHT22;22836;52.268;9.008;2022-07-25T15:35:39;35.70;32.20
36916;DHT22;22836;52.268;9.008;2022-07-25T15:39:41;35.40;32.50
36916;DHT22;22836;52.268;9.008;2022-07-25T15:43:43;35.00;32.80
36916;DHT22;22836;52.268;9.008;2022-07-25T15:47:48;34.70;33.10
36916;DHT22;22836;52.268;9.008;2022-07-25T15:51:51;34.50;33.30
36916;DHT22;22836;52.268;9.008;2022-07-25T15:55:53;34.30;33.40
36916;DHT22;22836;52.268;9.008;2022-07-25T15:59:55;34.30;33.20
36916;DHT22;22836;52.268;9.008;2022-07-25T16:03:58;34.30;33.20
36916;DHT22;22836;52.268;9.008;2022-07-25T16:08:00;34.10;33.20
36916;DHT22;22836;52.268;9.008;2022-07-25T16:12:01;33.90;33.50
36916;DHT22;22836;52.268;9.008;2022-07-25T16:16:03;33.70;33.70
36916;DHT22;22836;52.268;9.008;2022-07-25T16:20:06;33.50;34.00
36916;DHT22;22836;52.268;9.008;2022-07-25T16:24:08;33.40;34.70
36916;DHT22;22836;52.268;9.008;2022-07-25T16:28:10;33.30;34.40
36916;DHT22;22836;52.268;9.008;2022-07-25T16:32:12;33.30;34.80
36916;DHT22;22836;52.268;9.008;2022-07-25T16:36:14;33.60;34.90
36916;DHT22;22836;52.268;9.008;2022-07-25T16:40:16;33.90;34.40
36916;DHT22;22836;52.268;9.008;2022-07-25T16:44:20;33.90;34.30
36916;DHT22;22836;52.268;9.008;2022-07-25T16:48:23;33.70;34.40
36916;DHT22;22836;52.268;9.008;2022-07-25T16:52:25;33.40;34.60
36916;DHT22;22836;52.268;9.008;2022-07-25T16:56:27;33.30;34.70
36916;DHT22;22836;52.268;9.008;2022-07-25T17:00:29;33.20;34.70
36916;DHT22;22836;52.268;9.008;2022-07-25T17:04:32;33.00;34.70
36916;DHT22;22836;52.268;9.008;2022-07-25T17:08:34;32.70;34.80
36916;DHT22;22836;52.268;9.008;2022-07-25T17:12:36;32.50;35.30
36916;DHT22;22836;52.268;9.008;2022-07-25T17:16:40;32.30;35.60
36916;DHT22;22836;52.268;9.008;2022-07-25T17:20:42;32.00;35.90
36916;DHT22;22836;52.268;9.008;2022-07-25T17:24:44;31.80;36.50
36916;DHT22;22836;52.268;9.008;2022-07-25T17:28:46;31.40;36.50
36916;DHT22;22836;52.268;9.008;2022-07-25T17:32:48;31.20;36.80
36916;DHT22;22836;52.268;9.008;2022-07-25T17:36:50;30.90;37.20
36916;DHT22;22836;52.268;9.008;2022-07-25T17:40:53;30.70;37.10
36916;DHT22;22836;52.268;9.008;2022-07-25T17:44:55;30.50;37.30
36916;DHT22;22836;52.268;9.008;2022-07-25T17:48:58;30.30;37.50
36916;DHT22;22836;52.268;9.008;2022-07-25T17:53:00;30.20;37.40
36916;DHT22;22836;52.268;9.008;2022-07-25T17:57:02;30.10;37.50
36916;DHT22;22836;52.268;9.008;2022-07-25T18:01:04;30.00;37.80
36916;DHT22;22836;52.268;9.008;2022-07-25T18:05:10;29.90;37.60
36916;DHT22;22836;52.268;9.008;2022-07-25T18:09:12;29.80;37.70
36916;DHT22;22836;52.268;9.008;2022-07-25T18:13:15;29.70;37.70
36916;DHT22;22836;52.268;9.008;2022-07-25T18:17:19;29.70;37.90
36916;DHT22;22836;52.268;9.008;2022-07-25T18:21:21;29.70;38.00
36916;DHT22;22836;52.268;9.008;2022-07-25T18:25:25;29.60;38.10
36916;DHT22;22836;52.268;9.008;2022-07-25T18:29:27;29.50;38.10
36916;DHT22;22836;52.268;9.008;2022-07-25T18:33:29;29.30;38.00
36916;DHT22;22836;52.268;9.008;2022-07-25T18:37:31;29.20;38.00
36916;DHT22;22836;52.268;9.008;2022-07-25T18:41:33;29.00;38.10
36916;DHT22;22836;52.268;9.008;2022-07-25T18:45:35;28.90;38.20
36916;DHT22;22836;52.268;9.008;2022-07-25T18:49:38;28.80;38.30
36916;DHT22;22836;52.268;9.008;2022-07-25T18:53:40;28.60;38.40
36916;DHT22;22836;52.268;9.008;2022-07-25T18:57:48;28.50;38.50
36916;DHT22;22836;52.268;9.008;2022-07-25T19:01:50;28.40;38.70
36916;DHT22;22836;52.268;9.008;2022-07-25T19:05:52;28.20;38.60
36916;DHT22;22836;52.268;9.008;2022-07-25T19:09:56;28.10;38.60
36916;DHT22;22836;52.268;9.008;2022-07-25T19:13:58;28.00;38.80
36916;DHT22;22836;52.268;9.008;2022-07-25T19:18:03;27.90;38.90
36916;DHT22;22836;52.268;9.008;2022-07-25T19:22:04;27.70;39.00
36916;DHT22;22836;52.268;9.008;2022-07-25T19:26:06;27.70;39.00
36916;DHT22;22836;52.268;9.008;2022-07-25T19:30:09;27.60;39.10
36916;DHT22;22836;52.268;9.008;2022-07-25T19:34:17;27.50;39.10
36916;DHT22;22836;52.268;9.008;2022-07-25T19:38:19;27.40;39.20
36916;DHT22;22836;52.268;9.008;2022-07-25T19:42:21;27.30;39.40
36916;DHT22;22836;52.268;9.008;2022-07-25T19:46:23;27.20;39.70
36916;DHT22;22836;52.268;9.008;2022-07-25T19:50:26;27.10;39.40
36916;DHT22;22836;52.268;9.008;2022-07-25T19:54:28;27.00;39.50
36916;DHT22;22836;52.268;9.008;2022-07-25T19:58:30;26.90;39.60
36916;DHT22;22836;52.268;9.008;2022-07-25T20:02:40;26.80;39.70
36916;DHT22;22836;52.268;9.008;2022-07-25T20:06:43;26.70;39.70
36916;DHT22;22836;52.268;9.008;2022-07-25T20:10:45;26.60;39.80
36916;DHT22;22836;52.268;9.008;2022-07-25T20:14:47;26.60;39.80
36916;DHT22;22836;52.268;9.008;2022-07-25T20:18:50;26.50;39.90
36916;DHT22;22836;52.268;9.008;2022-07-25T20:22:52;26.40;39.90
36916;DHT22;22836;52.268;9.008;2022-07-25T20:26:54;26.40;40.10
36916;DHT22;22836;52.268;9.008;2022-07-25T20:30:56;26.30;40.10
36916;DHT22;22836;52.268;9.008;2022-07-25T20:34:59;26.30;40.10
36916;DHT22;22836;52.268;9.008;2022-07-25T20:39:01;26.20;40.30
36916;DHT22;22836;52.268;9.008;2022-07-25T20:43:08;26.20;40.30
36916;DHT22;22836;52.268;9.008;2022-07-25T20:47:09;26.20;40.30
36916;DHT22;22836;52.268;9.008;2022-07-25T20:51:11;26.10;40.40
36916;DHT22;22836;52.268;9.008;2022-07-25T20:55:13;26.10;40.50
36916;DHT22;22836;52.268;9.008;2022-07-25T20:59:15;26.10;40.40
36916;DHT22;22836;52.268;9.008;2022-07-25T21:03:29;26.00;40.30
36916;DHT22;22836;52.268;9.008;2022-07-25T21:07:34;25.90;40.50
36916;DHT22;22836;52.268;9.008;2022-07-25T21:11:36;25.90;40.40
36916;DHT22;22836;52.268;9.008;2022-07-25T21:15:38;25.80;40.30
36916;DHT22;22836;52.268;9.008;2022-07-25T21:19:40;25.80;40.30
36916;DHT22;22836;52.268;9.008;2022-07-25T21:27:46;25.70;40.10
36916;DHT22;22836;52.268;9.008;2022-07-25T21:31:49;25.60;39.90
36916;DHT22;22836;52.268;9.008;2022-07-25T21:35:51;25.50;39.80
36916;DHT22;22836;52.268;9.008;2022-07-25T21:39:54;25.40;39.70
36916;DHT22;22836;52.268;9.008;2022-07-25T21:43:56;25.30;39.70
36916;DHT22;22836;52.268;9.008;2022-07-25T21:47:58;25.20;39.70
36916;DHT22;22836;52.268;9.008;2022-07-25T21:52:03;25.10;39.80
36916;DHT22;22836;52.268;9.008;2022-07-25T21:56:05;25.00;39.80
36916;DHT22;22836;52.268;9.008;2022-07-25T22:00:09;24.90;39.80
36916;DHT22;22836;52.268;9.008;2022-07-25T22:04:11;24.80;40.00
36916;DHT22;22836;52.268;9.008;2022-07-25T22:08:16;24.70;39.90
36916;DHT22;22836;52.268;9.008;2022-07-25T22:12:18;24.60;40.00
36916;DHT22;22836;52.268;9.008;2022-07-25T22:16:22;24.50;40.00
36916;DHT22;22836;52.268;9.008;2022-07-25T22:20:24;24.50;40.10
36916;DHT22;22836;52.268;9.008;2022-07-25T22:24:26;24.40;40.20
36916;DHT22;22836;52.268;9.008;2022-07-25T22:28:28;24.40;40.20
36916;DHT22;22836;52.268;9.008;2022-07-25T22:32:30;24.30;40.20
36916;DHT22;22836;52.268;9.008;2022-07-25T22:36:32;24.30;40.30
36916;DHT22;22836;52.268;9.008;2022-07-25T22:40:34;24.20;40.30
36916;DHT22;22836;52.268;9.008;2022-07-25T22:44:36;24.20;40.40
36916;DHT22;22836;52.268;9.008;2022-07-25T22:48:38;24.20;40.40
36916;DHT22;22836;52.268;9.008;2022-07-25T22:52:40;24.20;40.50
36916;DHT22;22836;52.268;9.008;2022-07-25T22:56:42;24.20;40.40
36916;DHT22;22836;52.268;9.008;2022-07-25T23:00:44;24.30;40.40
36916;DHT22;22836;52.268;9.008;2022-07-25T23:04:46;24.30;40.40
36916;DHT22;22836;52.268;9.008;2022-07-25T23:08:48;24.30;40.30
36916;DHT22;22836;52.268;9.008;2022-07-25T23:12:50;24.30;40.30
36916;DHT22;22836;52.268;9.008;2022-07-25T23:16:52;24.40;40.40
36916;DHT22;22836;52.268;9.008;2022-07-25T23:20:54;24.40;40.50
36916;DHT22;22836;52.268;9.008;2022-07-25T23:24:56;24.30;40.40
36916;DHT22;22836;52.268;9.008;2022-07-25T23:28:59;24.30;40.50
36916;DHT22;22836;52.268;9.008;2022-07-25T23:33:03;24.30;40.40
36916;DHT22;22836;52.268;9.008;2022-07-25T23:37:12;24.30;40.50
36916;DHT22;22836;52.268;9.008;2022-07-25T23:41:14;24.30;41.00
36916;DHT22;22836;52.268;9.008;2022-07-25T23:45:16;24.30;40.80
36916;DHT22;22836;52.268;9.008;2022-07-25T23:49:22;24.20;40.80
36916;DHT22;22836;52.268;9.008;2022-07-25T23:53:24;24.20;41.00
36916;DHT22;22836;52.268;9.008;2022-07-25T23:57:26;24.20;41.70
